Time;durP1;ratioP1;P1;durP2;ratioP2;P2;SDS_P1;SDS_P2;PMS_P1;PMS_P2;Temp;Humidity;BMP_temperature;BMP_pressure;BME280_temperature;BME280_humidity;BME280_pressure;Samples;Min_cycle;Max_cycle;Signal;HPM_P1;HPM_P2
2022/04/30 00:00:11;;;;;;;12.68;6.90;;;6.90;99.90;;;;;;5072329;28;20489;-71
2022/04/30 00:02:37;;;;;;;14.73;6.88;;;6.90;99.90;;;;;;5072693;28;20047;-71
2022/04/30 00:05:03;;;;;;;16.75;7.10;;;6.90;99.90;;;;;;5072627;28;20032;-72
2022/04/30 00:07:29;;;;;;;16.65;6.93;;;6.80;99.90;;;;;;5072756;28;20077;-71
2022/04/30 00:09:54;;;;;;;12.60;5.50;;;6.90;99.90;;;;;;5072338;28;20040;-71
2022/04/30 00:12:21;;;;;;;16.75;6.72;;;6.80;99.90;;;;;;5090796;28;20044;-71
2022/04/30 00:14:47;;;;;;;10.60;6.55;;;6.80;99.90;;;;;;5090552;28;20489;-72
2022/04/30 00:17:16;;;;;;;13.90;6.90;;;6.80;99.90;;;;;;5072409;28;20086;-72
2022/04/30 00:19:41;;;;;;;11.00;6.32;;;6.80;99.90;;;;;;5072556;28;20403;-71
2022/04/30 00:22:08;;;;;;;13.65;8.00;;;6.80;99.90;;;;;;5072516;28;20119;-72
2022/04/30 00:24:35;;;;;;;14.25;7.10;;;6.80;99.90;;;;;;5072691;28;20040;-72
2022/04/30 00:27:01;;;;;;;14.70;7.38;;;6.70;99.90;;;;;;5090446;28;20048;-72
2022/04/30 00:29:31;;;;;;;12.57;7.43;;;6.70;99.90;;;;;;5090490;28;20135;-73
2022/04/30 00:31:57;;;;;;;14.35;7.53;;;6.70;99.90;;;;;;5055741;28;20048;-72
2022/04/30 00:34:23;;;;;;;13.20;7.07;;;6.70;99.90;;;;;;5090580;28;20047;-72
2022/04/30 00:36:49;;;;;;;16.55;7.70;;;6.70;99.90;;;;;;5090469;28;20396;-71
2022/04/30 00:39:15;;;;;;;13.38;7.43;;;6.70;99.90;;;;;;5071994;28;20036;-71
2022/04/30 00:41:44;;;;;;;16.17;7.85;;;6.70;99.90;;;;;;5072980;28;20492;-71
2022/04/30 00:44:11;;;;;;;15.57;7.43;;;6.60;99.90;;;;;;5075924;28;20381;-72
2022/04/30 00:46:37;;;;;;;13.73;7.43;;;6.60;99.90;;;;;;5075766;28;20075;-72
2022/04/30 00:49:03;;;;;;;19.80;8.07;;;6.60;99.90;;;;;;5093865;28;20068;-73
2022/04/30 00:51:29;;;;;;;15.65;7.63;;;6.60;99.90;;;;;;5075878;28;20043;-73
2022/04/30 00:53:56;;;;;;;16.33;7.95;;;6.50;99.90;;;;;;5075813;28;20126;-72
2022/04/30 00:56:33;;;;;;;16.40;7.30;;;6.50;99.90;;;;;;5075838;28;20082;-72
2022/04/30 00:59:03;;;;;;;17.85;8.20;;;6.50;99.90;;;;;;5075473;28;20040;-72
2022/04/30 01:01:32;;;;;;;16.63;7.80;;;6.50;99.90;;;;;;5094031;28;20043;-72
2022/04/30 01:03:58;;;;;;;16.33;7.80;;;6.50;99.90;;;;;;5093800;28;20115;-73
2022/04/30 01:06:44;;;;;;;12.60;7.07;;;6.40;99.90;;;;;;5075583;28;20115;-74
2022/04/30 01:09:10;;;;;;;14.35;7.38;;;6.50;99.90;;;;;;5093611;28;20089;-73
2022/04/30 01:11:36;;;;;;;16.05;8.48;;;6.40;99.90;;;;;;5093789;28;20055;-72
2022/04/30 01:14:02;;;;;;;13.35;7.47;;;6.40;99.90;;;;;;5093653;28;20046;-73
2022/04/30 01:16:28;;;;;;;15.50;7.13;;;6.40;99.90;;;;;;5093453;28;20039;-72
2022/04/30 01:18:54;;;;;;;14.23;7.82;;;6.30;99.90;;;;;;5093095;28;20076;-72
2022/04/30 01:21:24;;;;;;;16.67;8.05;;;6.30;99.90;;;;;;5093625;28;20039;-74
2022/04/30 01:23:49;;;;;;;13.27;7.55;;;6.40;99.90;;;;;;5093587;28;20040;-72
2022/04/30 01:26:17;;;;;;;14.85;7.15;;;6.40;99.90;;;;;;5075136;28;20043;-72
2022/04/30 01:28:44;;;;;;;15.95;7.43;;;6.30;99.90;;;;;;5092995;28;20036;-73
2022/04/30 01:37:22;;;;;;;12.95;7.70;;;6.30;99.90;;;;;;5093358;28;20093;-72
2022/04/30 01:39:28;;;;;;;13.48;7.85;;;6.20;99.90;;;;;;5074729;28;20701;-72
2022/04/30 01:41:54;;;;;;;13.80;7.20;;;6.20;99.90;;;;;;5093157;28;20044;-72
2022/04/30 01:44:20;;;;;;;13.10;8.07;;;6.20;99.90;;;;;;5093218;28;20105;-72
2022/04/30 01:46:47;;;;;;;15.48;8.57;;;6.10;99.90;;;;;;5074696;28;20039;-72
2022/04/30 01:49:16;;;;;;;18.48;8.15;;;6.20;99.90;;;;;;5092640;28;20048;-73
2022/04/30 01:51:48;;;;;;;15.23;8.23;;;6.10;99.90;;;;;;5074710;28;20044;-72
2022/04/30 01:54:14;;;;;;;15.25;7.85;;;6.10;99.90;;;;;;5073755;28;20583;-72
2022/04/30 01:56:40;;;;;;;16.90;8.82;;;6.00;99.90;;;;;;5074518;28;20135;-72
2022/04/30 01:59:05;;;;;;;16.80;7.50;;;6.00;99.90;;;;;;5092191;28;20385;-73
2022/04/30 02:01:32;;;;;;;13.13;7.40;;;6.00;99.90;;;;;;5074527;28;20599;-72
2022/04/30 02:03:58;;;;;;;19.50;8.05;;;5.90;99.90;;;;;;5057703;28;20415;-72
2022/04/30 02:06:24;;;;;;;14.73;7.15;;;5.90;99.90;;;;;;5074581;28;20040;-73
2022/04/30 02:08:50;;;;;;;17.27;7.70;;;5.90;99.90;;;;;;5074011;28;20051;-72
2022/04/30 02:11:16;;;;;;;14.48;7.72;;;5.90;99.90;;;;;;5074288;28;20043;-72
2022/04/30 02:13:52;;;;;;;17.20;7.18;;;5.90;99.90;;;;;;5092446;28;20036;-72
2022/04/30 02:16:21;;;;;;;12.18;7.72;;;5.90;99.90;;;;;;5074442;28;20455;-72
2022/04/30 02:18:47;;;;;;;17.13;8.32;;;5.90;99.90;;;;;;5057154;28;20056;-73
2022/04/30 02:21:16;;;;;;;14.52;7.72;;;5.90;99.90;;;;;;5074683;28;20690;-72
2022/04/30 02:23:42;;;;;;;13.80;7.72;;;5.90;99.90;;;;;;5074044;28;20043;-72
2022/04/30 02:26:09;;;;;;;14.18;7.60;;;5.90;99.90;;;;;;5073964;28;20122;-73
2022/04/30 02:28:36;;;;;;;13.65;7.75;;;5.90;99.90;;;;;;5073613;28;20051;-72
2022/04/30 02:31:02;;;;;;;18.20;8.52;;;5.90;99.90;;;;;;5073975;28;20052;-74
2022/04/30 02:33:27;;;;;;;15.57;7.63;;;5.90;99.90;;;;;;5073867;28;20044;-73
2022/04/30 02:35:54;;;;;;;14.65;7.88;;;5.90;99.90;;;;;;5074010;28;20050;-72
2022/04/30 02:38:19;;;;;;;16.75;7.97;;;5.90;99.90;;;;;;5073576;28;20044;-72
2022/04/30 02:40:45;;;;;;;16.95;7.95;;;5.80;99.90;;;;;;5073594;28;20040;-72
2022/04/30 02:43:15;;;;;;;12.38;7.63;;;5.90;99.90;;;;;;5073639;28;20554;-73
2022/04/30 02:45:44;;;;;;;15.60;7.82;;;5.80;99.90;;;;;;5092124;28;20063;-72
2022/04/30 02:48:13;;;;;;;14.50;8.18;;;5.80;99.90;;;;;;5073570;28;20039;-73
2022/04/30 02:50:38;;;;;;;20.17;7.50;;;5.80;99.90;;;;;;5073411;28;20043;-73
2022/04/30 02:53:05;;;;;;;11.90;7.45;;;5.80;99.90;;;;;;5091846;28;20036;-74
2022/04/30 02:55:31;;;;;;;15.68;7.60;;;5.80;99.90;;;;;;5091784;28;20074;-73
2022/04/30 03:00:51;;;;;;;14.07;7.45;;;5.70;99.90;;;;;;5073037;28;20842;-72
2022/04/30 03:03:18;;;;;;;13.15;7.68;;;5.70;99.90;;;;;;5073455;28;20075;-73
2022/04/30 03:05:45;;;;;;;13.00;7.72;;;5.60;99.90;;;;;;5056715;28;20484;-74
2022/04/30 03:08:13;;;;;;;15.15;7.75;;;5.60;99.90;;;;;;5091504;28;20071;-73
2022/04/30 03:10:44;;;;;;;15.48;8.45;;;5.60;99.90;;;;;;5091211;28;20039;-72
2022/04/30 03:13:10;;;;;;;14.60;7.90;;;5.70;99.90;;;;;;5073263;28;20067;-72
2022/04/30 03:15:38;;;;;;;13.65;7.70;;;5.60;99.90;;;;;;5073041;28;20467;-72
2022/04/30 03:23:30;;;;;;;14.15;7.43;;;5.70;99.90;;;;;;5091334;28;20121;-72
2022/04/30 03:25:56;;;;;;;15.43;7.47;;;5.70;99.90;;;;;;5073007;28;20058;-72
2022/04/30 03:28:21;;;;;;;15.02;8.52;;;5.70;99.90;;;;;;5072851;28;20511;-73
2022/04/30 03:30:47;;;;;;;17.80;7.57;;;5.70;99.90;;;;;;5056255;28;20040;-74
2022/04/30 03:33:12;;;;;;;14.90;7.57;;;5.80;99.90;;;;;;5091290;28;20110;-72
2022/04/30 03:35:39;;;;;;;12.45;7.85;;;5.70;99.90;;;;;;5072943;28;20457;-72
2022/04/30 03:38:06;;;;;;;13.93;8.32;;;5.70;99.90;;;;;;5072864;28;20036;-72
2022/04/30 03:40:34;;;;;;;19.02;8.82;;;5.70;99.90;;;;;;5090752;28;20400;-73
2022/04/30 03:43:01;;;;;;;15.63;8.40;;;5.80;99.90;;;;;;5056130;28;20040;-73
2022/04/30 03:45:27;;;;;;;17.30;8.02;;;5.80;99.90;;;;;;5090896;28;20054;-73
2022/04/30 03:47:53;;;;;;;15.73;8.02;;;5.80;99.90;;;;;;5072966;28;20036;-72
2022/04/30 03:50:18;;;;;;;13.40;7.78;;;5.70;99.90;;;;;;5055920;28;20126;-72
2022/04/30 03:52:44;;;;;;;13.27;7.32;;;5.70;99.90;;;;;;5091128;28;20117;-73
2022/04/30 03:55:10;;;;;;;14.80;8.02;;;5.60;99.90;;;;;;5090904;28;20044;-72
2022/04/30 03:57:36;;;;;;;18.45;7.50;;;5.70;99.90;;;;;;5091106;28;20040;-72
2022/04/30 04:00:04;;;;;;;12.40;7.65;;;5.60;99.90;;;;;;5090645;28;20044;-74
2022/04/30 04:02:30;;;;;;;15.93;9.02;;;5.70;99.90;;;;;;5090691;28;20043;-72
2022/04/30 04:04:55;;;;;;;10.88;7.82;;;5.70;99.90;;;;;;5087738;28;20677;-72
2022/04/30 04:07:21;;;;;;;13.35;7.88;;;5.70;99.90;;;;;;5088399;28;20043;-73
2022/04/30 04:09:46;;;;;;;13.25;8.40;;;5.60;99.90;;;;;;5089831;28;20079;-73
2022/04/30 04:12:13;;;;;;;11.52;7.95;;;5.60;99.90;;;;;;5089549;28;20050;-72
2022/04/30 04:17:38;;;;;;;16.77;8.70;;;5.50;99.90;;;;;;5092498;28;20508;-72
2022/04/30 04:20:14;;;;;;;10.88;7.70;;;5.60;99.90;;;;;;5076162;28;20496;-72
2022/04/30 04:22:40;;;;;;;14.57;9.35;;;5.60;99.90;;;;;;5076417;28;20043;-72
2022/04/30 04:27:55;;;;;;;13.85;7.40;;;5.60;99.90;;;;;;5076175;28;20059;-72
2022/04/30 04:30:30;;;;;;;24.02;9.02;;;5.70;99.90;;;;;;5076273;28;20093;-72
2022/04/30 04:32:57;;;;;;;14.48;8.25;;;5.70;99.90;;;;;;5059520;28;20040;-73
2022/04/30 04:35:23;;;;;;;14.65;8.63;;;5.70;99.90;;;;;;5076160;28;20047;-72
2022/04/30 04:37:48;;;;;;;18.88;8.18;;;5.60;99.90;;;;;;5076231;28;20044;-72
2022/04/30 04:40:15;;;;;;;13.27;8.02;;;5.60;99.90;;;;;;5075913;28;20047;-72
2022/04/30 04:42:42;;;;;;;18.63;9.95;;;5.70;99.90;;;;;;5094130;28;20040;-72
2022/04/30 04:45:09;;;;;;;13.05;8.60;;;5.80;99.90;;;;;;5094470;28;20040;-72
2022/04/30 04:47:36;;;;;;;18.00;9.30;;;5.80;99.90;;;;;;5094335;28;20051;-73
2022/04/30 04:50:03;;;;;;;15.10;8.88;;;5.80;99.90;;;;;;5094018;28;20116;-72
2022/04/30 04:52:30;;;;;;;16.85;8.93;;;5.90;99.90;;;;;;5076090;28;20040;-72
2022/04/30 04:54:57;;;;;;;15.90;8.90;;;5.90;99.90;;;;;;5075725;28;20131;-73
2022/04/30 04:57:23;;;;;;;21.00;8.85;;;6.00;99.90;;;;;;5093820;28;20051;-72
2022/04/30 04:59:49;;;;;;;20.00;8.77;;;6.10;99.90;;;;;;5093508;28;20119;-72
2022/04/30 05:02:16;;;;;;;16.33;9.15;;;6.10;99.90;;;;;;5094150;28;20095;-73
2022/04/30 05:04:41;;;;;;;15.25;8.95;;;6.10;99.90;;;;;;5093763;28;20127;-73
2022/04/30 05:07:07;;;;;;;18.40;8.95;;;6.20;99.90;;;;;;5059184;28;20123;-72
2022/04/30 05:09:33;;;;;;;18.42;8.63;;;6.20;99.90;;;;;;5075539;28;20081;-72
2022/04/30 05:12:02;;;;;;;14.80;7.85;;;6.30;99.90;;;;;;5059100;28;20054;-72
2022/04/30 05:14:32;;;;;;;16.45;8.55;;;6.30;99.90;;;;;;5075494;28;20047;-72
2022/04/30 05:17:03;;;;;;;16.48;9.43;;;6.30;99.90;;;;;;5093562;28;20040;-73
2022/04/30 05:19:28;;;;;;;22.48;9.48;;;6.30;99.90;;;;;;5058360;28;20055;-72
2022/04/30 05:21:54;;;;;;;16.40;8.70;;;6.40;99.90;;;;;;5093656;28;20040;-73
2022/04/30 05:24:19;;;;;;;15.15;8.43;;;6.40;99.90;;;;;;5075602;28;20075;-72
2022/04/30 05:26:47;;;;;;;19.98;8.10;;;6.40;99.90;;;;;;5093132;28;20043;-72
2022/04/30 05:29:13;;;;;;;17.00;8.98;;;6.50;99.90;;;;;;5073690;28;20111;-73
2022/04/30 05:31:39;;;;;;;14.02;8.55;;;6.50;99.90;;;;;;5093490;28;20048;-72
2022/04/30 05:34:04;;;;;;;15.70;8.68;;;6.60;99.90;;;;;;5093367;28;20122;-73
2022/04/30 05:36:30;;;;;;;13.18;8.60;;;6.60;99.90;;;;;;5093124;28;20036;-72
2022/04/30 05:38:55;;;;;;;17.80;9.20;;;6.70;99.90;;;;;;5074639;28;20731;-72
2022/04/30 05:41:21;;;;;;;13.00;8.82;;;6.70;99.90;;;;;;5074849;28;20055;-72
2022/04/30 05:43:46;;;;;;;17.70;8.57;;;6.80;99.90;;;;;;5074845;28;20043;-73
2022/04/30 05:46:13;;;;;;;17.58;9.25;;;6.80;99.90;;;;;;5093130;28;20514;-72
2022/04/30 05:48:39;;;;;;;15.43;8.70;;;6.80;99.90;;;;;;5074577;28;20047;-72
2022/04/30 05:51:05;;;;;;;18.17;9.73;;;6.90;99.90;;;;;;5092926;28;20040;-73
2022/04/30 05:53:30;;;;;;;15.02;8.65;;;6.90;99.90;;;;;;5074768;28;20046;-73
2022/04/30 05:55:56;;;;;;;15.38;8.98;;;7.00;99.90;;;;;;5092680;28;20123;-72
2022/04/30 05:58:22;;;;;;;13.88;8.70;;;7.10;99.90;;;;;;5057694;28;20044;-72
2022/04/30 06:00:48;;;;;;;16.92;9.05;;;7.10;99.90;;;;;;5092413;28;20493;-73
2022/04/30 06:03:13;;;;;;;23.20;8.40;;;7.10;99.90;;;;;;5092831;28;20046;-72
2022/04/30 06:05:39;;;;;;;17.23;9.43;;;7.20;99.90;;;;;;5092549;28;20373;-73
2022/04/30 06:08:06;;;;;;;16.05;9.00;;;7.20;99.90;;;;;;5092534;28;20040;-74
2022/04/30 06:10:32;;;;;;;14.30;9.18;;;7.20;99.90;;;;;;5092125;28;20052;-73
2022/04/30 06:12:57;;;;;;;19.25;9.82;;;7.30;99.90;;;;;;5092685;28;20036;-72
2022/04/30 06:15:23;;;;;;;16.13;8.68;;;7.40;99.90;;;;;;5092392;28;20036;-73
2022/04/30 06:17:49;;;;;;;17.55;7.57;;;7.40;99.90;;;;;;5092355;28;20044;-74
2022/04/30 06:20:15;;;;;;;14.45;8.38;;;7.50;99.90;;;;;;5092203;28;20039;-72
2022/04/30 06:22:40;;;;;;;23.98;9.98;;;7.60;99.90;;;;;;5092319;28;20036;-72
2022/04/30 06:25:06;;;;;;;12.23;8.23;;;7.70;99.90;;;;;;5092073;28;20040;-72
2022/04/30 06:27:33;;;;;;;16.67;8.55;;;7.70;99.90;;;;;;5092342;28;20044;-73
2022/04/30 06:29:59;;;;;;;15.82;8.98;;;7.80;99.90;;;;;;5091819;28;20507;-72
2022/04/30 06:32:25;;;;;;;15.80;8.65;;;7.90;99.90;;;;;;5092230;28;20032;-73
2022/04/30 06:34:50;;;;;;;14.95;8.57;;;8.00;99.90;;;;;;5091963;28;20044;-72
2022/04/30 06:37:17;;;;;;;15.27;8.00;;;8.10;99.90;;;;;;5091960;28;20032;-72
2022/04/30 06:39:43;;;;;;;15.70;7.68;;;8.20;99.90;;;;;;5073097;28;20046;-73
2022/04/30 06:42:09;;;;;;;13.70;7.70;;;8.30;99.90;;;;;;5091935;28;20051;-72
2022/04/30 06:44:34;;;;;;;15.10;7.30;;;8.40;99.90;;;;;;5092097;28;20036;-73
2022/04/30 06:47:00;;;;;;;14.48;7.72;;;8.50;99.90;;;;;;5091941;28;20032;-73
2022/04/30 06:49:25;;;;;;;13.57;8.15;;;8.50;99.90;;;;;;5091537;28;20048;-73
2022/04/30 06:51:51;;;;;;;12.95;8.20;;;8.60;99.90;;;;;;5091830;28;20043;-72
2022/04/30 06:57:08;;;;;;;16.33;7.35;;;8.80;99.90;;;;;;5091510;28;20040;-72
2022/04/30 06:59:41;;;;;;;14.00;7.90;;;8.90;99.90;;;;;;5073285;28;20086;-73
2022/04/30 07:02:17;;;;;;;14.15;7.60;;;9.00;99.90;;;;;;5073317;28;20151;-73
2022/04/30 07:04:44;;;;;;;15.43;7.80;;;9.00;99.90;;;;;;5073219;28;20046;-72
2022/04/30 07:07:10;;;;;;;10.18;7.03;;;9.10;99.90;;;;;;5073299;28;20040;-72
2022/04/30 07:09:37;;;;;;;12.40;7.72;;;9.10;99.90;;;;;;5073059;28;20075;-73
2022/04/30 07:12:06;;;;;;;18.23;8.05;;;9.10;99.90;;;;;;5091512;28;20040;-73
2022/04/30 07:14:37;;;;;;;15.48;8.40;;;9.20;99.90;;;;;;5073332;28;20126;-73
2022/04/30 07:17:13;;;;;;;13.98;7.90;;;9.30;99.90;;;;;;5073039;28;20040;-73
2022/04/30 07:19:40;;;;;;;11.80;6.90;;;9.40;99.90;;;;;;5073021;28;20032;-73
2022/04/30 07:22:09;;;;;;;10.68;7.50;;;9.40;99.90;;;;;;5073065;28;20042;-73
2022/04/30 07:24:35;;;;;;;12.48;7.65;;;9.60;99.90;;;;;;5073303;28;20397;-74
2022/04/30 07:27:01;;;;;;;13.23;7.47;;;9.70;99.90;;;;;;5091151;28;20110;-72
2022/04/30 07:29:27;;;;;;;12.25;6.97;;;9.70;99.90;;;;;;5072883;28;20040;-74
2022/04/30 07:31:53;;;;;;;9.70;6.43;;;9.70;99.90;;;;;;5091116;28;20032;-73
2022/04/30 07:34:19;;;;;;;14.80;7.28;;;9.90;99.90;;;;;;5073346;28;20462;-72
2022/04/30 07:36:44;;;;;;;10.70;6.80;;;10.00;99.90;;;;;;5056737;28;20035;-73
2022/04/30 07:39:10;;;;;;;11.63;6.20;;;10.00;99.90;;;;;;5072692;28;20514;-72
2022/04/30 07:41:36;;;;;;;7.22;4.65;;;10.10;99.90;;;;;;5072851;28;20089;-72
2022/04/30 07:44:02;;;;;;;13.73;6.63;;;10.20;99.90;;;;;;5091032;28;20043;-72
2022/04/30 07:46:28;;;;;;;12.38;5.45;;;10.30;99.90;;;;;;5072685;28;20489;-72
2022/04/30 07:48:53;;;;;;;10.02;6.03;;;10.30;99.90;;;;;;5072861;28;20040;-72
2022/04/30 07:51:33;;;;;;;11.75;5.88;;;10.30;99.90;;;;;;5073190;28;20039;-72
2022/04/30 07:54:02;;;;;;;9.45;5.85;;;10.50;99.90;;;;;;5077002;28;20507;-72
2022/04/30 07:56:28;;;;;;;13.77;6.20;;;10.50;99.90;;;;;;5076888;28;20036;-73
2022/04/30 07:58:53;;;;;;;13.40;5.97;;;10.50;99.90;;;;;;5076492;28;20043;-74
2022/04/30 08:01:19;;;;;;;13.27;6.90;;;10.30;99.90;;;;;;5077095;28;20079;-72
2022/04/30 08:03:44;;;;;;;8.57;5.13;;;10.30;99.90;;;;;;5095024;28;20483;-72
2022/04/30 08:06:10;;;;;;;8.68;5.95;;;10.30;99.90;;;;;;5076952;28;20044;-73
2022/04/30 08:08:36;;;;;;;11.32;5.60;;;10.30;99.90;;;;;;5076803;28;20044;-72
2022/04/30 08:11:01;;;;;;;13.40;7.53;;;10.40;99.90;;;;;;5077284;28;20142;-72
2022/04/30 08:13:27;;;;;;;10.50;5.75;;;10.50;99.90;;;;;;5060610;28;20047;-73
2022/04/30 08:15:53;;;;;;;8.60;5.95;;;10.70;99.90;;;;;;5077009;28;20048;-73
2022/04/30 08:18:19;;;;;;;9.57;5.75;;;10.80;99.90;;;;;;5060532;28;20040;-73
2022/04/30 08:20:46;;;;;;;12.02;6.20;;;10.90;99.90;;;;;;5078667;28;20036;-72
2022/04/30 08:23:12;;;;;;;11.63;6.47;;;10.90;99.90;;;;;;5100192;28;20043;-73
2022/04/30 08:25:38;;;;;;;8.60;5.50;;;10.90;99.90;;;;;;5080061;28;20669;-73
2022/04/30 08:28:04;;;;;;;11.15;6.68;;;10.90;99.90;;;;;;5079757;28;20122;-73
2022/04/30 08:30:31;;;;;;;7.22;5.13;;;11.00;99.90;;;;;;5080156;28;20093;-73
2022/04/30 08:32:57;;;;;;;8.27;5.65;;;11.00;99.90;;;;;;5078557;28;20048;-74
2022/04/30 08:35:22;;;;;;;8.77;5.45;;;10.90;99.90;;;;;;5076203;28;20044;-74
2022/04/30 08:37:48;;;;;;;8.98;5.38;;;11.00;99.90;;;;;;5076392;28;20036;-72
2022/04/30 08:40:14;;;;;;;7.35;5.07;;;11.00;99.90;;;;;;5059575;28;20047;-73
2022/04/30 08:42:39;;;;;;;10.82;5.32;;;11.20;99.90;;;;;;5075918;28;20032;-73
2022/04/30 08:45:09;;;;;;;9.25;4.65;;;11.40;99.90;;;;;;5076057;28;20040;-73
2022/04/30 08:47:43;;;;;;;9.80;5.20;;;11.50;99.90;;;;;;5076031;28;20044;-73
2022/04/30 08:50:14;;;;;;;7.90;5.43;;;11.50;99.90;;;;;;5075606;28;20562;-73
2022/04/30 08:52:40;;;;;;;12.45;5.38;;;11.50;99.90;;;;;;5094201;28;20040;-73
2022/04/30 08:55:07;;;;;;;8.93;5.38;;;11.70;99.90;;;;;;5075704;28;20123;-73
2022/04/30 08:57:33;;;;;;;9.23;5.57;;;11.60;99.90;;;;;;5075677;28;20048;-73
2022/04/30 08:59:59;;;;;;;8.02;5.40;;;11.60;99.90;;;;;;5075356;28;20040;-73
2022/04/30 09:02:25;;;;;;;9.05;5.45;;;11.60;99.90;;;;;;5075421;28;20389;-73
2022/04/30 09:04:51;;;;;;;9.05;5.25;;;11.70;99.90;;;;;;5075849;28;20063;-72
2022/04/30 09:07:25;;;;;;;7.65;4.80;;;11.60;99.90;;;;;;5075573;28;20052;-72
2022/04/30 09:10:03;;;;;;;8.88;4.85;;;11.50;99.90;;;;;;5075267;28;20044;-73
2022/04/30 09:12:29;;;;;;;9.65;5.25;;;11.50;99.90;;;;;;5093891;28;20047;-73
2022/04/30 09:14:55;;;;;;;9.75;5.30;;;11.50;99.90;;;;;;5093769;28;20036;-72
2022/04/30 09:17:23;;;;;;;12.38;5.85;;;11.50;99.90;;;;;;5093563;28;20032;-73
2022/04/30 09:19:51;;;;;;;8.70;5.20;;;11.30;99.90;;;;;;5093304;28;20036;-73
2022/04/30 09:22:27;;;;;;;8.23;4.72;;;11.40;99.90;;;;;;5093446;28;20039;-73
2022/04/30 09:24:53;;;;;;;9.73;4.72;;;11.50;99.90;;;;;;5075583;28;20370;-73
2022/04/30 09:27:19;;;;;;;8.93;5.07;;;11.50;99.90;;;;;;5093422;28;20046;-73
2022/04/30 09:29:45;;;;;;;11.52;5.60;;;11.50;99.90;;;;;;5075204;28;20113;-73
2022/04/30 09:32:17;;;;;;;13.27;5.30;;;11.50;99.90;;;;;;5093458;28;20357;-73
2022/04/30 09:37:41;;;;;;;7.05;4.40;;;11.40;99.90;;;;;;5093152;28;20048;-74
2022/04/30 09:40:27;;;;;;;7.93;4.43;;;11.50;99.90;;;;;;5075088;28;20036;-73
2022/04/30 09:42:53;;;;;;;12.95;4.70;;;11.60;99.90;;;;;;5075275;28;20073;-73
2022/04/30 09:45:30;;;;;;;6.95;4.53;;;11.60;99.90;;;;;;5075023;28;20119;-73
2022/04/30 09:47:56;;;;;;;10.80;5.05;;;11.70;99.90;;;;;;5095163;28;20056;-73
2022/04/30 09:55:56;;;;;;;6.93;4.55;;;12.10;99.90;;;;;;5097279;28;20043;-73
2022/04/30 09:58:36;;;;;;;7.22;4.40;;;12.10;99.90;;;;;;5077120;28;20050;-73
2022/04/30 10:01:02;;;;;;;10.15;3.83;;;12.20;99.90;;;;;;5101039;28;20047;-73
2022/04/30 10:03:29;;;;;;;8.20;4.22;;;12.10;99.90;;;;;;5101751;28;20046;-72
2022/04/30 10:06:05;;;;;;;7.60;3.90;;;12.20;99.90;;;;;;5084160;28;20040;-75
2022/04/30 10:08:35;;;;;;;8.82;4.68;;;12.20;99.90;;;;;;5082431;28;20345;-73
2022/04/30 10:11:26;;;;;;;9.05;4.00;;;12.10;99.90;;;;;;5082785;28;20057;-73
2022/04/30 10:14:23;;;;;;;4.80;3.97;;;12.20;99.90;;;;;;5092487;28;20047;-73
2022/04/30 10:19:35;;;;;;;6.95;4.30;;;12.30;99.90;;;;;;5092210;28;20048;-73
2022/04/30 10:22:15;;;;;;;6.60;4.78;;;12.30;99.90;;;;;;5092461;28;20044;-73
2022/04/30 10:24:42;;;;;;;5.45;4.50;;;12.50;99.90;;;;;;5092330;28;20054;-72
2022/04/30 10:27:08;;;;;;;8.65;4.32;;;12.30;99.90;;;;;;5091222;28;20054;-72
2022/04/30 10:29:33;;;;;;;6.82;4.10;;;12.60;99.90;;;;;;5091514;28;20496;-71
2022/04/30 10:31:59;;;;;;;9.18;4.25;;;12.60;99.90;;;;;;5092135;28;20123;-72
2022/04/30 10:34:29;;;;;;;6.65;4.05;;;12.60;99.90;;;;;;5074627;28;20036;-72
2022/04/30 10:36:56;;;;;;;8.57;3.90;;;12.60;99.90;;;;;;5073737;28;20061;-72
2022/04/30 10:39:21;;;;;;;5.93;3.65;;;12.70;99.90;;;;;;5089797;28;20078;-73
2022/04/30 10:41:54;;;;;;;7.97;4.50;;;12.80;99.90;;;;;;5073170;28;20492;-72
2022/04/30 10:44:30;;;;;;;6.35;3.83;;;13.00;99.90;;;;;;5073273;28;20063;-73
2022/04/30 10:47:13;;;;;;;7.30;3.90;;;12.90;99.90;;;;;;5072437;28;20117;-71
2022/04/30 10:49:38;;;;;;;;;;;13.10;99.90;;;;;;5091833;28;20086;-70
2022/04/30 10:52:05;;;;;;;5.93;4.10;;;13.00;99.90;;;;;;5072672;28;19916;-72
2022/04/30 10:54:31;;;;;;;7.13;4.15;;;13.00;99.90;;;;;;5073159;28;20118;-69
2022/04/30 10:56:59;;;;;;;9.73;3.55;;;13.00;99.90;;;;;;5056189;28;20061;-70
2022/04/30 10:59:26;;;;;;;7.43;3.78;;;13.10;99.90;;;;;;5072021;28;20040;-71
2022/04/30 11:01:52;;;;;;;8.43;3.72;;;13.20;99.90;;;;;;5072479;28;20431;-71
2022/04/30 11:04:18;;;;;;;5.72;3.47;;;13.20;99.90;;;;;;5091026;28;20044;-70
2022/04/30 11:06:47;;;;;;;11.32;3.80;;;13.30;99.90;;;;;;5091105;28;20032;-71
2022/04/30 11:09:13;;;;;;;7.88;3.90;;;13.40;99.90;;;;;;5072494;28;20507;-71
2022/04/30 11:11:38;;;;;;;6.40;3.22;;;13.40;99.90;;;;;;5090406;28;20064;-71
2022/04/30 11:14:09;;;;;;;7.00;3.67;;;13.30;99.90;;;;;;5090458;28;20043;-71
2022/04/30 11:16:41;;;;;;;8.70;3.05;;;13.50;99.10;;;;;;5090681;28;20036;-71
2022/04/30 11:19:11;;;;;;;8.32;3.83;;;13.30;99.90;;;;;;5072603;28;20412;-71
2022/04/30 11:21:40;;;;;;;10.65;3.35;;;13.30;99.90;;;;;;5072808;28;20161;-70
2022/04/30 11:24:08;;;;;;;4.80;3.25;;;13.50;99.90;;;;;;5072425;28;20119;-70
2022/04/30 11:26:41;;;;;;;10.05;3.40;;;13.50;99.90;;;;;;5090898;28;20044;-69
2022/04/30 11:29:13;;;;;;;10.32;3.45;;;13.60;99.90;;;;;;5072129;28;20040;-70
2022/04/30 11:31:41;;;;;;;6.78;3.90;;;13.70;99.90;;;;;;5055836;28;20400;-70
2022/04/30 11:34:12;;;;;;;5.35;3.50;;;13.50;99.90;;;;;;5090020;28;20445;-71
2022/04/30 11:36:42;;;;;;;8.80;3.47;;;13.30;99.90;;;;;;5072533;28;20048;-70
2022/04/30 11:39:10;;;;;;;10.52;3.80;;;13.30;99.90;;;;;;5090195;28;20123;-70
2022/04/30 11:41:39;;;;;;;5.65;3.90;;;13.40;99.90;;;;;;5089921;28;20040;-70
2022/04/30 11:44:05;;;;;;;13.32;3.78;;;13.30;99.90;;;;;;5090261;28;20035;-70
2022/04/30 11:46:31;;;;;;;8.07;3.47;;;13.50;99.90;;;;;;5089630;28;20395;-70
2022/04/30 11:48:56;;;;;;;6.43;3.70;;;13.40;99.90;;;;;;5071969;28;20060;-71
2022/04/30 11:51:26;;;;;;;8.43;3.92;;;13.50;99.90;;;;;;5072699;28;20040;-70
2022/04/30 11:53:51;;;;;;;5.03;3.47;;;13.60;99.90;;;;;;5089559;28;20040;-70
2022/04/30 11:56:17;;;;;;;7.18;3.90;;;13.40;99.90;;;;;;5090231;28;20484;-67
2022/04/30 11:58:43;;;;;;;7.95;4.63;;;13.50;99.90;;;;;;5091939;28;20062;-68
2022/04/30 12:01:22;;;;;;;4.82;4.10;;;13.50;99.90;;;;;;5097811;28;20036;-67
2022/04/30 12:04:11;;;;;;;8.13;4.57;;;13.50;99.90;;;;;;5100474;28;20115;-68
2022/04/30 12:06:38;;;;;;;7.45;3.65;;;13.30;99.90;;;;;;5098711;28;20172;-68
2022/04/30 12:09:31;;;;;;;5.50;3.95;;;13.30;99.90;;;;;;5107205;28;20044;-68
2022/04/30 12:11:58;;;;;;;8.77;4.68;;;13.20;99.90;;;;;;5077891;28;20052;-68
2022/04/30 12:14:24;;;;;;;6.93;3.63;;;13.20;99.90;;;;;;5100065;28;20040;-67
2022/04/30 12:16:51;;;;;;;7.05;3.88;;;13.10;99.90;;;;;;5077609;28;20040;-69
2022/04/30 12:25:15;;;;;;;7.53;3.60;;;13.10;99.90;;;;;;5008040;28;20042;-70
2022/04/30 12:27:51;;;;;;;6.50;4.38;;;13.10;99.90;;;;;;5006145;28;20054;-70
2022/04/30 12:30:16;;;;;;;10.93;3.80;;;13.00;99.90;;;;;;4990453;28;20046;-70
2022/04/30 12:32:50;;;;;;;7.13;4.10;;;13.00;99.90;;;;;;4992152;28;20092;-69
2022/04/30 12:35:27;;;;;;;5.75;3.78;;;12.90;99.90;;;;;;4991670;28;20158;-70
2022/04/30 12:38:03;;;;;;;8.13;3.97;;;12.80;99.90;;;;;;5023525;28;20045;-70
2022/04/30 12:40:29;;;;;;;10.15;3.83;;;12.80;99.90;;;;;;5013904;28;20052;-70
2022/04/30 12:42:55;;;;;;;6.93;4.45;;;12.90;99.90;;;;;;5015063;28;20037;-70
2022/04/30 12:45:20;;;;;;;8.00;4.60;;;12.90;99.90;;;;;;5031081;28;20485;-71
2022/04/30 12:47:48;;;;;;;10.25;4.40;;;12.90;99.90;;;;;;5030582;28;20041;-70
2022/04/30 12:50:14;;;;;;;8.82;4.45;;;12.70;99.90;;;;;;5013579;28;20597;-71
2022/04/30 12:52:39;;;;;;;13.45;4.63;;;12.90;99.90;;;;;;5031241;28;20037;-70
2022/04/30 12:55:05;;;;;;;7.72;4.10;;;12.80;99.90;;;;;;5030791;28;20045;-71
2022/04/30 12:57:31;;;;;;;15.05;4.22;;;12.80;99.90;;;;;;5031036;28;20060;-70
2022/04/30 12:59:57;;;;;;;9.18;4.47;;;12.80;99.90;;;;;;5043474;28;20048;-72
2022/04/30 13:02:22;;;;;;;7.30;4.13;;;12.80;99.90;;;;;;5093906;28;20511;-71
2022/04/30 13:04:52;;;;;;;11.95;4.38;;;12.80;99.90;;;;;;5094082;28;20522;-71
2022/04/30 13:07:18;;;;;;;7.93;4.07;;;12.70;99.90;;;;;;5093774;28;20036;-70
2022/04/30 13:15:32;;;;;;;8.13;5.20;;;12.70;99.90;;;;;;5010600;28;20042;-70
2022/04/30 13:17:58;;;;;;;9.10;5.03;;;12.80;99.90;;;;;;4993651;28;20041;-70
2022/04/30 13:20:25;;;;;;;10.90;5.07;;;12.70;99.90;;;;;;5009672;28;20076;-69
2022/04/30 13:22:52;;;;;;;8.65;5.03;;;12.60;99.90;;;;;;5009305;28;20058;-69
2022/04/30 13:25:18;;;;;;;10.95;5.40;;;12.60;99.90;;;;;;5009053;28;20053;-70
2022/04/30 13:27:45;;;;;;;9.25;4.85;;;12.60;99.90;;;;;;5009879;28;20058;-69
2022/04/30 13:30:11;;;;;;;8.13;4.43;;;12.60;99.90;;;;;;4992653;28;20041;-70
2022/04/30 13:32:37;;;;;;;10.63;4.82;;;12.50;99.90;;;;;;5010847;28;20084;-70